Time;durP1;ratioP1;P1;durP2;ratioP2;P2;SDS_P1;SDS_P2;PMS_P1;PMS_P2;Temp;Humidity;BMP_temperature;BMP_pressure;BME280_temperature;BME280_humidity;BME280_pressure;Samples;Min_cycle;Max_cycle;Signal;HPM_P1;HPM_P2
2022/01/14 00:01:04;;;;;;;29.35;15.15;;;7.70;87.90;;;;;;5004025;28;20112;-68
2022/01/14 00:03:31;;;;;;;31.15;13.73;;;7.70;88.00;;;;;;5004185;28;20018;-68
2022/01/14 00:05:56;;;;;;;37.13;15.90;;;7.70;88.00;;;;;;5005641;28;20033;-68
2022/01/14 00:08:22;;;;;;;28.02;14.32;;;7.80;87.60;;;;;;5006404;28;20064;-67
2022/01/14 00:10:49;;;;;;;37.13;17.02;;;7.80;87.60;;;;;;5008520;28;20033;-68
2022/01/14 00:16:01;;;;;;;31.73;14.88;;;7.80;87.50;;;;;;5003009;28;20497;-66
2022/01/14 00:18:26;;;;;;;30.40;14.73;;;7.70;87.40;;;;;;5011528;28;20049;-69
2022/01/14 00:20:52;;;;;;;38.08;16.75;;;7.80;87.80;;;;;;5005661;28;20053;-68
2022/01/14 00:23:19;;;;;;;36.78;16.38;;;7.80;87.40;;;;;;5009668;28;20588;-68
2022/01/14 00:33:58;;;;;;;36.60;16.77;;;7.70;87.90;;;;;;4998127;28;20624;-68
2022/01/14 00:36:23;;;;;;;33.63;16.42;;;7.70;88.00;;;;;;4998434;28;20029;-68
2022/01/14 00:38:49;;;;;;;31.98;13.90;;;7.80;87.90;;;;;;5012598;28;20492;-67
2022/01/14 00:41:15;;;;;;;33.13;16.45;;;7.80;87.50;;;;;;5008015;28;20115;-67
2022/01/14 00:43:42;;;;;;;30.92;14.65;;;7.80;87.30;;;;;;5004332;28;20096;-67
2022/01/14 00:46:08;;;;;;;33.65;16.23;;;7.80;87.50;;;;;;5004967;28;20085;-67
2022/01/14 00:48:35;;;;;;;28.75;13.98;;;7.80;87.30;;;;;;5006527;28;20855;-68
2022/01/14 00:51:01;;;;;;;37.00;16.55;;;7.80;87.50;;;;;;5012471;28;20061;-68
2022/01/14 00:53:26;;;;;;;25.30;14.07;;;7.80;87.60;;;;;;5008726;28;20088;-67
2022/01/14 00:55:59;;;;;;;34.65;16.73;;;7.90;87.60;;;;;;5008389;28;20052;-68
2022/01/14 01:01:09;;;;;;;31.85;15.93;;;7.80;87.60;;;;;;5004936;28;20458;-68
2022/01/14 01:03:35;;;;;;;32.03;15.95;;;7.90;87.50;;;;;;5008503;28;20084;-67
2022/01/14 01:06:01;;;;;;;32.55;15.75;;;7.90;87.50;;;;;;5016615;28;20103;-67
2022/01/14 01:08:28;;;;;;;33.58;16.60;;;7.80;87.50;;;;;;5010895;28;20489;-68
2022/01/14 01:10:54;;;;;;;30.45;16.05;;;7.80;87.50;;;;;;5006245;28;20502;-67
2022/01/14 01:13:25;;;;;;;36.67;15.82;;;7.80;87.50;;;;;;5013589;28;20045;-67
2022/01/14 01:15:51;;;;;;;38.28;16.15;;;7.80;87.60;;;;;;5018176;28;20068;-67
2022/01/14 01:18:18;;;;;;;37.75;16.92;;;7.80;87.30;;;;;;5013128;28;20473;-67
2022/01/14 01:20:45;;;;;;;34.53;16.58;;;7.70;87.80;;;;;;5017202;28;20033;-68
2022/01/14 01:23:10;;;;;;;34.65;15.40;;;7.70;88.00;;;;;;5009133;28;20044;-67
2022/01/14 01:25:55;;;;;;;35.53;17.63;;;7.70;87.80;;;;;;4991798;28;20079;-67
2022/01/14 01:28:20;;;;;;;41.05;16.52;;;7.80;88.30;;;;;;5004967;28;20042;-67
2022/01/14 01:31:03;;;;;;;31.80;15.93;;;7.70;88.40;;;;;;5015695;28;20041;-68
2022/01/14 01:33:29;;;;;;;33.88;15.90;;;7.70;88.00;;;;;;5010997;28;20042;-67
2022/01/14 01:35:56;;;;;;;33.63;15.23;;;7.70;88.20;;;;;;5007906;28;20084;-67
2022/01/14 01:38:23;;;;;;;37.78;15.85;;;7.70;88.20;;;;;;5005825;28;20148;-67
2022/01/14 01:40:49;;;;;;;41.47;17.13;;;7.70;88.30;;;;;;5011203;28;20120;-68
2022/01/14 01:43:16;;;;;;;34.55;14.98;;;7.80;88.10;;;;;;5003585;28;20048;-67
2022/01/14 01:45:47;;;;;;;32.47;15.80;;;7.80;88.00;;;;;;5015651;28;20124;-69
2022/01/14 01:48:13;;;;;;;38.25;15.73;;;7.70;88.40;;;;;;5006664;28;20049;-68
2022/01/14 01:50:38;;;;;;;38.17;17.05;;;7.80;88.40;;;;;;5010090;28;20821;-68
2022/01/14 01:53:04;;;;;;;40.17;18.30;;;7.80;88.60;;;;;;5016079;28;20095;-68
2022/01/14 01:55:30;;;;;;;36.85;17.10;;;7.80;88.80;;;;;;5019038;28;20069;-68
2022/01/14 01:57:56;;;;;;;33.25;16.60;;;7.80;88.60;;;;;;5005972;28;20044;-67
2022/01/14 02:00:24;;;;;;;36.40;16.08;;;7.80;88.40;;;;;;5012462;28;20481;-68
2022/01/14 02:02:53;;;;;;;41.47;17.83;;;7.80;88.10;;;;;;5008707;28;20033;-68
2022/01/14 02:05:19;;;;;;;37.80;17.35;;;7.80;88.40;;;;;;5006336;28;20132;-68
2022/01/14 02:07:45;;;;;;;33.00;15.88;;;7.80;88.50;;;;;;5019961;28;20080;-68
2022/01/14 02:10:11;;;;;;;35.10;15.55;;;7.80;88.40;;;;;;4988699;28;20035;-68
2022/01/14 02:12:45;;;;;;;37.90;16.55;;;7.80;88.90;;;;;;5008548;28;20044;-68
2022/01/14 02:15:25;;;;;;;33.90;15.40;;;7.80;88.60;;;;;;5013497;28;20034;-68
2022/01/14 02:23:03;;;;;;;35.75;16.92;;;7.70;89.00;;;;;;5006566;28;20396;-70
2022/01/14 02:25:30;;;;;;;40.35;18.48;;;7.80;89.30;;;;;;5001404;28;20036;-71
2022/01/14 02:28:08;;;;;;;36.80;16.20;;;7.70;89.20;;;;;;5020087;28;20032;-71
2022/01/14 02:30:38;;;;;;;38.08;17.25;;;7.70;89.50;;;;;;5019983;28;20049;-69
2022/01/14 02:33:04;;;;;;;41.00;17.40;;;7.70;89.90;;;;;;5012166;28;20629;-68
2022/01/14 02:35:30;;;;;;;37.70;17.45;;;7.60;90.10;;;;;;5013318;28;20481;-69
2022/01/14 02:37:56;;;;;;;38.42;16.23;;;7.70;90.10;;;;;;5003897;28;20088;-68
2022/01/14 02:40:23;;;;;;;38.70;16.65;;;7.70;90.10;;;;;;5011731;28;20050;-69
2022/01/14 02:42:49;;;;;;;42.35;19.00;;;7.60;90.10;;;;;;5017292;28;20370;-69
2022/01/14 02:45:16;;;;;;;41.05;17.90;;;7.60;90.30;;;;;;5009254;28;20112;-69
2022/01/14 02:47:42;;;;;;;37.75;17.42;;;7.60;90.30;;;;;;5026907;28;20132;-69
2022/01/14 02:50:13;;;;;;;35.35;16.90;;;7.60;90.60;;;;;;5001697;28;20041;-69
2022/01/14 02:52:43;;;;;;;35.42;16.33;;;7.60;90.60;;;;;;5004909;28;20037;-69
2022/01/14 02:55:18;;;;;;;39.90;16.63;;;7.60;90.70;;;;;;5003244;28;20041;-69
2022/01/14 02:57:46;;;;;;;33.53;15.63;;;7.60;90.80;;;;;;5005274;28;20083;-68
2022/01/14 03:00:13;;;;;;;42.40;17.27;;;7.60;90.80;;;;;;5006923;28;20029;-66
2022/01/14 03:02:44;;;;;;;40.45;17.45;;;7.60;90.70;;;;;;5004359;28;20447;-69
2022/01/14 03:05:11;;;;;;;33.83;15.95;;;7.60;91.10;;;;;;5007301;28;20037;-66
2022/01/14 03:07:39;;;;;;;44.90;18.65;;;7.60;90.90;;;;;;5015197;28;20060;-66
2022/01/14 03:10:06;;;;;;;35.00;16.40;;;7.60;90.90;;;;;;5021092;28;20055;-66
2022/01/14 03:12:32;;;;;;;38.97;16.23;;;7.60;90.80;;;;;;5009872;28;20118;-66
2022/01/14 03:14:57;;;;;;;35.80;16.23;;;7.60;90.90;;;;;;5009124;28;20033;-67
2022/01/14 03:17:23;;;;;;;40.25;16.85;;;7.50;91.10;;;;;;5010625;28;20493;-66
2022/01/14 03:19:49;;;;;;;43.72;18.25;;;7.50;91.10;;;;;;5009129;28;20472;-66
2022/01/14 03:22:22;;;;;;;33.53;16.70;;;7.50;91.20;;;;;;5012084;28;20044;-66
2022/01/14 03:27:13;;;;;;;36.90;17.60;;;7.50;91.30;;;;;;5008351;28;20034;-68
2022/01/14 03:29:39;;;;;;;37.33;17.20;;;7.50;91.40;;;;;;5007488;28;20041;-64
2022/01/14 03:32:06;;;;;;;37.10;16.17;;;7.50;91.50;;;;;;5001720;28;20081;-66
2022/01/14 03:34:31;;;;;;;40.08;17.75;;;7.50;91.50;;;;;;5003078;28;20032;-67
2022/01/14 03:36:57;;;;;;;36.72;17.45;;;7.60;91.60;;;;;;5004731;28;20057;-67
2022/01/14 03:39:23;;;;;;;39.85;17.98;;;7.60;91.50;;;;;;5011214;28;20065;-67
2022/01/14 03:41:49;;;;;;;39.97;17.60;;;7.60;91.50;;;;;;5004000;28;20563;-66
2022/01/14 03:44:16;;;;;;;44.95;18.17;;;7.70;91.40;;;;;;5013956;28;20022;-66
2022/01/14 03:46:42;;;;;;;36.75;18.48;;;7.60;91.40;;;;;;5015997;28;20055;-66
2022/01/14 03:49:08;;;;;;;39.20;17.13;;;7.60;91.40;;;;;;5004863;28;20042;-66
2022/01/14 03:51:34;;;;;;;37.35;17.20;;;7.60;91.50;;;;;;5005430;28;20424;-66
2022/01/14 03:53:59;;;;;;;44.58;18.13;;;7.60;91.60;;;;;;5005607;28;20547;-65
2022/01/14 03:56:27;;;;;;;43.00;19.17;;;7.60;91.70;;;;;;5010060;28;20033;-65
2022/01/14 03:58:54;;;;;;;41.90;18.60;;;7.50;91.60;;;;;;5014226;28;20053;-66
2022/01/14 04:01:21;;;;;;;38.60;16.88;;;7.50;91.80;;;;;;5001158;28;20034;-65
2022/01/14 04:03:48;;;;;;;37.30;17.42;;;7.50;91.90;;;;;;4999170;28;20068;-66
2022/01/14 04:06:14;;;;;;;32.10;15.45;;;7.40;92.00;;;;;;5004791;28;20144;-66
2022/01/14 04:08:41;;;;;;;40.60;19.77;;;7.40;92.10;;;;;;5004609;28;20125;-66
2022/01/14 04:11:08;;;;;;;38.03;18.95;;;7.50;92.20;;;;;;5002442;28;20081;-67
2022/01/14 04:13:44;;;;;;;42.35;18.83;;;7.50;92.10;;;;;;5011639;28;20040;-68
2022/01/14 04:16:10;;;;;;;39.13;17.27;;;7.50;92.00;;;;;;5017387;28;20065;-67
2022/01/14 04:18:36;;;;;;;41.97;18.13;;;7.40;92.00;;;;;;5008761;28;20029;-66
2022/01/14 04:21:02;;;;;;;40.10;17.95;;;7.40;92.20;;;;;;5019344;28;20057;-65
2022/01/14 04:23:28;;;;;;;48.20;18.92;;;7.40;92.20;;;;;;5023721;28;20604;-65
2022/01/14 04:25:55;;;;;;;44.00;19.42;;;7.40;92.20;;;;;;5011331;28;20030;-65
2022/01/14 04:28:21;;;;;;;42.15;18.10;;;7.40;92.20;;;;;;5013619;28;20018;-65
2022/01/14 04:30:48;;;;;;;44.72;19.17;;;7.40;92.30;;;;;;5007628;28;20120;-66
2022/01/14 04:33:14;;;;;;;49.35;19.58;;;7.40;92.30;;;;;;5007464;28;20118;-66
2022/01/14 04:35:40;;;;;;;41.03;18.45;;;7.40;92.30;;;;;;5014215;28;20123;-66
2022/01/14 04:38:07;;;;;;;44.67;19.48;;;7.40;92.30;;;;;;5006189;28;20125;-66
2022/01/14 04:40:32;;;;;;;46.58;18.45;;;7.40;92.30;;;;;;5014987;28;20069;-66
2022/01/14 04:42:59;;;;;;;48.55;19.88;;;7.40;92.30;;;;;;5004221;28;20038;-66
2022/01/14 04:45:42;;;;;;;41.13;18.60;;;7.30;92.50;;;;;;5014218;28;20030;-65
2022/01/14 04:48:11;;;;;;;44.78;19.10;;;7.30;92.70;;;;;;5016817;28;20132;-65
2022/01/14 04:50:37;;;;;;;44.38;19.83;;;7.30;92.60;;;;;;5014079;28;20119;-65
2022/01/14 04:53:03;;;;;;;46.72;19.08;;;7.30;92.60;;;;;;5007212;28;20041;-66
2022/01/14 04:55:29;;;;;;;50.40;19.10;;;7.30;92.40;;;;;;5007493;28;20029;-66
2022/01/14 04:57:56;;;;;;;48.80;19.67;;;7.30;92.30;;;;;;5003794;28;20068;-66
2022/01/14 05:00:24;;;;;;;60.28;22.17;;;7.30;92.30;;;;;;5022904;28;20555;-66
2022/01/14 05:02:54;;;;;;;47.42;21.48;;;7.30;92.20;;;;;;5021763;28;20037;-65
2022/01/14 05:05:23;;;;;;;59.78;21.67;;;7.30;92.20;;;;;;5012487;28;20038;-64
2022/01/14 05:07:50;;;;;;;67.47;25.08;;;7.30;92.10;;;;;;5008001;28;20041;-64
2022/01/14 05:12:42;;;;;;;52.60;21.63;;;7.30;92.30;;;;;;5004635;28;20038;-64
2022/01/14 05:15:08;;;;;;;55.97;22.50;;;7.10;92.20;;;;;;5011317;28;20056;-63
2022/01/14 05:17:34;;;;;;;60.17;22.13;;;7.10;92.40;;;;;;5030201;28;20064;-64
2022/01/14 05:20:00;;;;;;;55.13;19.98;;;7.10;92.50;;;;;;5019615;28;20493;-64
2022/01/14 05:22:27;;;;;;;59.00;21.95;;;7.10;92.40;;;;;;5033505;28;20037;-64
2022/01/14 05:24:53;;;;;;;54.65;20.80;;;7.10;92.50;;;;;;5022837;28;20061;-64
2022/01/14 05:27:19;;;;;;;59.38;23.75;;;7.00;92.40;;;;;;5014068;28;20069;-64
2022/01/14 05:29:45;;;;;;;55.20;21.63;;;7.00;92.70;;;;;;5024233;28;20132;-64
2022/01/14 05:32:12;;;;;;;54.35;20.80;;;7.00;92.60;;;;;;5025421;28;20048;-64
2022/01/14 05:34:39;;;;;;;60.17;21.67;;;7.00;92.50;;;;;;5019039;28;20132;-65
2022/01/14 05:37:06;;;;;;;53.83;20.75;;;7.00;92.70;;;;;;5014615;28;20060;-64
2022/01/14 05:39:32;;;;;;;57.25;21.88;;;7.00;92.70;;;;;;5007064;28;20121;-64
2022/01/14 05:41:59;;;;;;;50.95;20.48;;;7.00;92.80;;;;;;5008259;28;20104;-64
2022/01/14 05:44:26;;;;;;;55.80;21.52;;;7.00;92.50;;;;;;5011607;28;20034;-65
2022/01/14 05:46:53;;;;;;;64.50;23.38;;;7.00;92.60;;;;;;5010063;28;20030;-64
2022/01/14 05:49:20;;;;;;;62.97;21.23;;;7.00;92.60;;;;;;5007861;28;20049;-64
2022/01/14 05:51:46;;;;;;;58.05;23.65;;;6.90;92.80;;;;;;5013480;28;20140;-65
2022/01/14 05:54:12;;;;;;;47.33;19.27;;;6.90;92.90;;;;;;5004806;28;20422;-64
2022/01/14 05:56:38;;;;;;;59.08;21.10;;;6.90;92.70;;;;;;5006495;28;20025;-64
2022/01/14 05:59:04;;;;;;;57.42;22.45;;;6.90;92.70;;;;;;5010384;28;20072;-65
2022/01/14 06:01:32;;;;;;;56.35;22.02;;;6.90;92.70;;;;;;5014256;28;20448;-64
2022/01/14 06:03:59;;;;;;;54.38;21.08;;;6.90;92.60;;;;;;5006468;28;20030;-64
2022/01/14 06:06:26;;;;;;;57.70;21.70;;;7.00;92.70;;;;;;5008963;28;20076;-64
2022/01/14 06:08:52;;;;;;;66.35;22.60;;;7.00;92.70;;;;;;5004037;28;20052;-65
2022/01/14 06:11:18;;;;;;;48.28;20.35;;;7.00;92.80;;;;;;5019051;28;20029;-64
2022/01/14 06:13:44;;;;;;;50.30;21.02;;;7.00;92.60;;;;;;5024431;28;20038;-65
2022/01/14 06:16:10;;;;;;;62.05;21.77;;;7.00;92.40;;;;;;5010935;28;20038;-65
2022/01/14 06:18:36;;;;;;;53.65;20.33;;;7.00;92.40;;;;;;5011940;28;20045;-64
2022/01/14 06:21:02;;;;;;;54.38;20.65;;;7.00;92.40;;;;;;5007802;28;20037;-64
2022/01/14 06:23:27;;;;;;;58.72;21.05;;;7.00;92.30;;;;;;5003120;28;20143;-65
2022/01/14 06:25:53;;;;;;;48.40;19.33;;;7.10;92.40;;;;;;5015611;28;20034;-64
2022/01/14 06:28:19;;;;;;;53.78;19.55;;;7.10;92.30;;;;;;5012842;28;20037;-65
2022/01/14 06:30:44;;;;;;;50.28;18.73;;;7.00;92.10;;;;;;5014066;28;20737;-64
2022/01/14 06:33:10;;;;;;;45.33;18.52;;;7.10;92.20;;;;;;5011302;28;20140;-64
2022/01/14 06:35:36;;;;;;;52.85;20.98;;;7.00;92.20;;;;;;5005922;28;20518;-65
2022/01/14 06:38:02;;;;;;;51.63;21.80;;;7.00;92.10;;;;;;5006177;28;20148;-64
2022/01/14 06:40:29;;;;;;;49.22;20.85;;;7.10;92.10;;;;;;5011994;28;20033;-65
2022/01/14 06:42:55;;;;;;;48.22;19.88;;;7.00;91.90;;;;;;5017374;28;20163;-65
2022/01/14 06:45:22;;;;;;;44.35;19.00;;;7.10;92.10;;;;;;5014221;28;20752;-64
2022/01/14 06:47:48;;;;;;;43.97;18.00;;;7.10;91.90;;;;;;5016152;28;20148;-64
2022/01/14 06:50:14;;;;;;;48.47;20.60;;;7.10;91.70;;;;;;5016089;28;20125;-65
2022/01/14 06:52:40;;;;;;;50.80;20.23;;;7.10;91.70;;;;;;5024316;28;20037;-65
2022/01/14 06:55:06;;;;;;;50.95;19.40;;;7.10;91.50;;;;;;5020092;28;20068;-64
2022/01/14 06:57:32;;;;;;;45.10;17.63;;;7.10;91.70;;;;;;5011722;28;20033;-65
2022/01/14 06:59:58;;;;;;;39.85;16.85;;;7.10;91.40;;;;;;5003900;28;20033;-65
2022/01/14 07:02:23;;;;;;;42.58;17.33;;;7.10;91.50;;;;;;4990076;28;20044;-64
2022/01/14 07:04:49;;;;;;;38.38;16.27;;;7.20;91.40;;;;;;5005594;28;20444;-64
2022/01/14 07:07:15;;;;;;;36.85;16.08;;;7.20;91.30;;;;;;5012724;28;20034;-64
2022/01/14 07:09:56;;;;;;;37.63;16.73;;;7.30;91.30;;;;;;5011693;28;20108;-65
2022/01/14 07:12:36;;;;;;;37.20;16.48;;;7.30;91.30;;;;;;5010759;28;20037;-65
2022/01/14 07:15:04;;;;;;;43.65;16.02;;;7.30;91.10;;;;;;5003532;28;20038;-65
2022/01/14 07:17:30;;;;;;;41.50;17.55;;;7.30;91.10;;;;;;5016741;28;20037;-65
2022/01/14 07:19:59;;;;;;;38.22;17.35;;;7.30;91.00;;;;;;5003734;28;20551;-65
2022/01/14 07:22:25;;;;;;;38.53;16.05;;;7.30;91.10;;;;;;5017087;28;20033;-64
2022/01/14 07:24:51;;;;;;;38.63;16.38;;;7.40;91.20;;;;;;5016939;28;20127;-64
2022/01/14 07:27:17;;;;;;;31.98;15.18;;;7.30;91.00;;;;;;5005508;28;20113;-64
2022/01/14 07:29:44;;;;;;;36.70;15.88;;;7.30;91.00;;;;;;5019887;28;20048;-64
2022/01/14 07:32:09;;;;;;;40.42;16.60;;;7.30;91.00;;;;;;5012775;28;20101;-65
2022/01/14 07:34:36;;;;;;;37.30;15.38;;;7.30;90.90;;;;;;4998294;28;20111;-65
2022/01/14 07:37:02;;;;;;;34.22;14.93;;;7.30;91.10;;;;;;5008478;28;20033;-64
2022/01/14 07:39:28;;;;;;;34.78;16.48;;;7.30;91.30;;;;;;5015798;28;20118;-64
2022/01/14 07:41:54;;;;;;;36.05;15.25;;;7.30;91.30;;;;;;5005294;28;20512;-65
2022/01/14 07:44:20;;;;;;;36.50;15.27;;;7.30;91.40;;;;;;5007546;28;20033;-65
2022/01/14 07:46:47;;;;;;;41.33;15.27;;;7.30;91.20;;;;;;5004375;28;20036;-65
2022/01/14 07:49:13;;;;;;;39.88;15.40;;;7.30;91.20;;;;;;5013232;28;20038;-65
2022/01/14 07:51:40;;;;;;;41.20;16.38;;;7.30;91.20;;;;;;5013452;28;20403;-65
2022/01/14 07:54:05;;;;;;;45.40;17.92;;;7.30;91.20;;;;;;5016831;28;20144;-64
2022/01/14 07:56:33;;;;;;;35.90;15.25;;;7.30;91.40;;;;;;5010097;28;20108;-64
2022/01/14 07:58:59;;;;;;;43.97;16.67;;;7.30;91.30;;;;;;5006899;28;20521;-64
2022/01/14 08:01:25;;;;;;;37.97;15.00;;;7.40;91.30;;;;;;5007215;28;20077;-64
2022/01/14 08:03:51;;;;;;;43.75;15.73;;;7.40;91.30;;;;;;5014668;28;20025;-64
2022/01/14 08:06:17;;;;;;;35.03;16.40;;;7.40;91.10;;;;;;5012817;28;20546;-65
2022/01/14 08:08:44;;;;;;;38.72;15.95;;;7.40;91.10;;;;;;5011484;28;20588;-64
2022/01/14 08:11:10;;;;;;;44.20;17.15;;;7.30;91.20;;;;;;5023378;28;20528;-65
2022/01/14 08:13:35;;;;;;;44.75;17.17;;;7.30;91.30;;;;;;5009331;28;20041;-64
2022/01/14 08:16:01;;;;;;;42.20;16.58;;;7.30;91.20;;;;;;5015757;28;20511;-64
2022/01/14 08:18:28;;;;;;;46.65;17.00;;;7.30;91.10;;;;;;5013089;28;20042;-64
2022/01/14 08:20:55;;;;;;;42.05;16.58;;;7.30;91.20;;;;;;5011117;28;20030;-64
2022/01/14 08:23:21;;;;;;;39.65;17.05;;;7.30;91.00;;;;;;5017020;28;20072;-64
2022/01/14 08:25:46;;;;;;;37.53;15.73;;;7.40;91.10;;;;;;5025860;28;20494;-64
2022/01/14 08:28:12;;;;;;;43.70;17.80;;;7.30;91.20;;;;;;5029408;28;20025;-69
2022/01/14 08:30:38;;;;;;;38.97;17.42;;;7.30;91.20;;;;;;5026509;28;20036;-64
2022/01/14 08:33:04;;;;;;;45.35;18.15;;;7.30;91.10;;;;;;5030936;28;20044;-64
2022/01/14 08:35:29;;;;;;;43.72;17.02;;;7.40;91.00;;;;;;5031657;28;20769;-64
2022/01/14 08:37:55;;;;;;;45.88;19.88;;;7.40;91.10;;;;;;5030111;28;20573;-64
2022/01/14 08:40:21;;;;;;;43.08;17.35;;;7.40;90.70;;;;;;5023870;28;20036;-64
2022/01/14 08:42:53;;;;;;;45.55;18.92;;;7.40;91.10;;;;;;5016797;28;20032;-64
2022/01/14 08:45:21;;;;;;;39.03;17.05;;;7.50;90.90;;;;;;5027793;28;20401;-64
2022/01/14 08:47:47;;;;;;;50.25;17.70;;;7.50;90.90;;;;;;5020561;28;20037;-68
2022/01/14 08:50:13;;;;;;;46.25;16.67;;;7.60;90.80;;;;;;5019651;28;20036;-65
2022/01/14 08:52:39;;;;;;;34.13;14.80;;;7.50;90.50;;;;;;5028020;28;20045;-65
2022/01/14 08:55:05;;;;;;;42.17;15.18;;;7.60;90.70;;;;;;5019307;28;20037;-65
2022/01/14 08:57:31;;;;;;;40.42;15.70;;;7.60;90.50;;;;;;5019377;28;20038;-64
2022/01/14 08:59:57;;;;;;;34.47;15.55;;;7.70;90.30;;;;;;5018630;28;20047;-65
2022/01/14 09:02:22;;;;;;;40.28;15.98;;;7.60;90.50;;;;;;5023472;28;20065;-65
2022/01/14 09:04:48;;;;;;;35.83;15.45;;;7.60;90.50;;;;;;5023911;28;20037;-64
2022/01/14 09:07:16;;;;;;;41.33;16.42;;;7.60;90.50;;;;;;5027171;28;20144;-65
2022/01/14 09:09:41;;;;;;;35.28;15.43;;;7.60;90.30;;;;;;5017400;28;20021;-65
2022/01/14 09:12:08;;;;;;;34.88;15.02;;;7.60;90.30;;;;;;5015939;28;20096;-64
2022/01/14 09:14:34;;;;;;;43.25;17.42;;;7.60;90.40;;;;;;5017877;28;20045;-65
2022/01/14 09:17:00;;;;;;;32.53;14.43;;;7.60;90.40;;;;;;5014711;28;20033;-66
2022/01/14 09:19:26;;;;;;;35.90;14.25;;;7.60;90.20;;;;;;5008746;28;20478;-67
2022/01/14 09:21:51;;;;;;;32.80;14.23;;;7.60;90.20;;;;;;5005385;28;20030;-64
2022/01/14 09:24:17;;;;;;;31.85;14.68;;;7.50;90.40;;;;;;5009026;28;20129;-66
2022/01/14 09:26:43;;;;;;;37.65;13.75;;;7.60;90.50;;;;;;5008298;28;20026;-65
2022/01/14 09:29:09;;;;;;;36.72;13.52;;;7.60;90.50;;;;;;5007229;28;20111;-66
2022/01/14 09:31:35;;;;;;;33.40;14.32;;;7.70;90.30;;;;;;5009058;28;20030;-66
2022/01/14 09:34:01;;;;;;;37.90;13.18;;;7.70;90.20;;;;;;5014397;28;20049;-66
2022/01/14 09:36:27;;;;;;;30.58;13.80;;;7.80;90.10;;;;;;5005213;28;20079;-66
2022/01/14 09:38:53;;;;;;;34.88;13.25;;;7.90;90.00;;;;;;5001543;28;20030;-66
2022/01/14 09:41:19;;;;;;;29.30;13.95;;;7.90;89.80;;;;;;5010513;28;20535;-66
2022/01/14 09:43:45;;;;;;;23.58;11.43;;;8.00;89.70;;;;;;5010670;28;20041;-65
2022/01/14 09:46:11;;;;;;;29.45;14.13;;;8.10;89.40;;;;;;5006475;28;20224;-66
2022/01/14 09:48:38;;;;;;;27.70;12.32;;;8.00;88.90;;;;;;5007750;28;20524;-66
2022/01/14 09:51:04;;;;;;;23.42;11.45;;;8.00;89.10;;;;;;5004329;28;20044;-65
2022/01/14 09:53:32;;;;;;;26.17;11.38;;;8.00;89.20;;;;;;5021446;28;20021;-66
2022/01/14 09:55:58;;;;;;;25.05;9.85;;;8.00;89.00;;;;;;5018015;28;20034;-65
2022/01/14 09:58:29;;;;;;;19.73;10.63;;;8.00;89.90;;;;;;5010578;28;20042;-65
2022/01/14 10:01:20;;;;;;;22.23;9.55;;;8.10;89.20;;;;;;5009254;28;20162;-66
2022/01/14 10:03:56;;;;;;;21.13;10.23;;;8.10;88.90;;;;;;5004434;28;20405;-66
2022/01/14 10:06:40;;;;;;;23.85;10.15;;;8.10;89.00;;;;;;5004994;28;20103;-65
2022/01/14 10:09:21;;;;;;;27.67;10.60;;;8.10;90.00;;;;;;5005980;28;20113;-65
2022/01/14 10:12:08;;;;;;;25.92;9.48;;;8.20;89.30;;;;;;5014693;28;20119;-66
2022/01/14 10:14:37;;;;;;;22.80;9.98;;;8.20;88.70;;;;;;5005635;28;20056;-66
2022/01/14 10:17:08;;;;;;;32.13;10.75;;;8.20;88.60;;;;;;5003561;28;20494;-66
2022/01/14 10:19:39;;;;;;;29.98;10.95;;;8.20;89.00;;;;;;5007308;28;20039;-65
2022/01/14 10:22:27;;;;;;;22.20;9.88;;;8.10;88.80;;;;;;5012427;28;20034;-65
2022/01/14 10:25:02;;;;;;;27.92;10.85;;;8.20;89.70;;;;;;5009026;28;20036;-65
2022/01/14 10:27:38;;;;;;;25.30;9.70;;;8.30;89.40;;;;;;5008494;28;20126;-65
2022/01/14 10:30:07;;;;;;;24.33;9.55;;;8.30;89.20;;;;;;5009156;28;20037;-65
2022/01/14 10:32:34;;;;;;;16.58;9.07;;;8.40;88.90;;;;;;5008849;28;20141;-65
2022/01/14 10:35:05;;;;;;;22.83;9.82;;;8.40;89.00;;;;;;5022744;28;20055;-67
2022/01/14 10:37:35;;;;;;;24.73;9.63;;;8.40;88.20;;;;;;5016606;28;20037;-65
2022/01/14 10:40:22;;;;;;;25.88;10.38;;;8.50;88.20;;;;;;5014982;28;20144;-70
2022/01/14 10:42:49;;;;;;;;;;;8.50;88.60;;;;;;5011583;28;20030;-64
2022/01/14 10:45:25;;;;;;;25.30;9.52;;;8.40;88.50;;;;;;5015978;28;19914;-65
2022/01/14 10:48:05;;;;;;;26.20;10.27;;;8.40;88.50;;;;;;5012834;28;20401;-65
2022/01/14 10:50:43;;;;;;;21.90;9.43;;;8.40;88.90;;;;;;5015227;28;20033;-65
2022/01/14 10:53:37;;;;;;;28.33;9.80;;;8.40;88.90;;;;;;5013982;28;20675;-65
2022/01/14 10:56:17;;;;;;;16.85;8.05;;;8.40;89.10;;;;;;5005604;28;20052;-65
2022/01/14 10:58:45;;;;;;;19.95;8.00;;;8.50;88.40;;;;;;5006391;28;20040;-66
2022/01/14 11:01:15;;;;;;;20.45;9.25;;;8.50;87.90;;;;;;5002083;28;20033;-65
2022/01/14 11:03:52;;;;;;;24.80;9.77;;;8.50;88.30;;;;;;5007843;28;20382;-65
2022/01/14 11:06:27;;;;;;;18.73;7.95;;;8.50;88.50;;;;;;5012313;28;20838;-65
2022/01/14 11:09:00;;;;;;;20.67;8.52;;;8.50;88.40;;;;;;5016224;28;20091;-66
2022/01/14 11:11:29;;;;;;;25.65;8.75;;;8.60;88.50;;;;;;5007334;28;20044;-66
2022/01/14 11:13:55;;;;;;;22.52;9.48;;;8.60;88.30;;;;;;5011077;28;20029;-65
2022/01/14 11:16:21;;;;;;;23.05;8.45;;;8.60;87.90;;;;;;5007123;28;20352;-66
2022/01/14 11:18:48;;;;;;;22.02;8.80;;;8.50;88.50;;;;;;5015720;28;20037;-67
2022/01/14 11:23:59;;;;;;;24.52;9.25;;;8.60;88.40;;;;;;5006062;28;20072;-66
2022/01/14 11:26:31;;;;;;;17.92;7.45;;;8.60;88.50;;;;;;5006896;28;20049;-66
2022/01/14 11:29:08;;;;;;;21.48;9.20;;;8.60;88.30;;;;;;5003356;28;20026;-65
2022/01/14 11:31:37;;;;;;;23.85;8.70;;;8.70;88.60;;;;;;5013670;28;20151;-65
2022/01/14 11:34:27;;;;;;;21.30;8.77;;;8.70;88.40;;;;;;5016002;28;20036;-66
2022/01/14 11:36:58;;;;;;;21.33;7.93;;;8.70;88.20;;;;;;5005415;28;20037;-66
2022/01/14 11:39:34;;;;;;;23.70;9.27;;;8.70;88.30;;;;;;5006229;28;20042;-66
2022/01/14 11:42:05;;;;;;;18.45;8.07;;;8.80;88.20;;;;;;5008252;28;20037;-67
2022/01/14 11:44:43;;;;;;;20.02;8.35;;;8.70;88.30;;;;;;5002130;28;20061;-66
2022/01/14 11:47:28;;;;;;;20.63;8.65;;;8.80;88.40;;;;;;5012071;28;20033;-64
2022/01/14 11:49:56;;;;;;;22.05;8.80;;;8.80;88.20;;;;;;5014722;28;20041;-67
2022/01/14 11:52:42;;;;;;;26.05;10.52;;;8.80;88.10;;;;;;5021090;28;20056;-67
2022/01/14 11:55:23;;;;;;;25.52;9.30;;;8.70;88.80;;;;;;5001884;28;20038;-66
2022/01/14 11:57:51;;;;;;;25.13;10.60;;;8.80;89.20;;;;;;4999094;28;20652;-67
2022/01/14 12:00:42;;;;;;;20.55;8.52;;;8.80;88.70;;;;;;5004463;28;20422;-67
2022/01/14 12:03:09;;;;;;;20.40;9.15;;;8.80;88.90;;;;;;5001982;28;20045;-67
2022/01/14 12:05:37;;;;;;;27.15;9.60;;;8.90;88.80;;;;;;5004161;28;20709;-67
2022/01/14 12:08:11;;;;;;;22.75;8.38;;;9.00;88.80;;;;;;5005808;28;20034;-67
2022/01/14 12:10:41;;;;;;;18.73;8.35;;;9.00;88.00;;;;;;5001709;28;20045;-67
2022/01/14 12:13:24;;;;;;;19.20;8.52;;;9.00;87.90;;;;;;5002755;28;20650;-68
2022/01/14 12:15:57;;;;;;;24.70;9.15;;;9.00;87.90;;;;;;5009990;28;20044;-68
2022/01/14 12:18:57;;;;;;;24.85;9.70;;;9.00;88.20;;;;;;5007629;28;20026;-67
2022/01/14 12:21:38;;;;;;;19.55;8.25;;;9.20;88.10;;;;;;5014050;28;20121;-67
2022/01/14 12:24:19;;;;;;;24.50;9.55;;;9.20;87.50;;;;;;5006086;28;20049;-67
2022/01/14 12:27:17;;;;;;;20.55;8.70;;;9.20;87.60;;;;;;5006698;28;20030;-67
2022/01/14 12:30:11;;;;;;;15.68;8.88;;;9.20;88.00;;;;;;5010439;28;20044;-67
2022/01/14 12:32:39;;;;;;;21.95;9.27;;;9.20;87.90;;;;;;5013903;28;20037;-66
2022/01/14 12:35:07;;;;;;;17.00;8.50;;;9.30;87.90;;;;;;5007461;28;20033;-62
2022/01/14 12:37:35;;;;;;;19.75;8.95;;;9.30;87.90;;;;;;5008684;28;20041;-64
2022/01/14 12:40:11;;;;;;;18.70;8.25;;;9.20;87.70;;;;;;5009222;28;20084;-65
2022/01/14 12:42:38;;;;;;;;;;;9.20;88.40;;;;;;5010961;28;20076;-64
2022/01/14 12:45:06;;;;;;;;;;;9.20;88.10;;;;;;5010298;28;19919;-64
2022/01/14 12:47:38;;;;;;;18.25;8.38;;;9.20;88.50;;;;;;5009111;28;20445;-65
2022/01/14 12:50:10;;;;;;;18.58;8.38;;;9.20;88.50;;;;;;5010141;28;20794;-64
2022/01/14 12:52:50;;;;;;;24.70;8.52;;;9.20;88.70;;;;;;5005811;28;20926;-65
2022/01/14 12:55:17;;;;;;;22.88;8.85;;;9.20;88.90;;;;;;5005638;28;20048;-66
2022/01/14 12:57:43;;;;;;;23.75;8.95;;;9.20;88.40;;;;;;5012862;28;20080;-64
2022/01/14 13:00:11;;;;;;;20.40;9.00;;;9.20;88.70;;;;;;5015809;28;20220;-65
2022/01/14 13:02:38;;;;;;;18.63;8.85;;;9.20;88.70;;;;;;5008053;28;20044;-64
2022/01/14 13:05:07;;;;;;;23.05;9.98;;;9.20;89.20;;;;;;5006841;28;20034;-64
2022/01/14 13:07:34;;;;;;;20.38;8.63;;;9.20;88.50;;;;;;5015547;28;20034;-64
2022/01/14 13:10:02;;;;;;;20.70;8.40;;;9.20;89.20;;;;;;5007543;28;20045;-66
2022/01/14 13:12:33;;;;;;;18.38;9.38;;;9.10;88.80;;;;;;5015467;28;20046;-63
2022/01/14 13:15:01;;;;;;;20.20;8.23;;;9.10;89.20;;;;;;5006906;28;20041;-66